Time;durP1;ratioP1;P1;durP2;ratioP2;P2;SDS_P1;SDS_P2;PMS_P1;PMS_P2;Temp;Humidity;BMP_temperature;BMP_pressure;BME280_temperature;BME280_humidity;BME280_pressure;Samples;Min_cycle;Max_cycle;Signal;HPM_P1;HPM_P2
2023/09/15 00:00:26;;;;;;;6.30;3.47;;;;;;;27.24;44.76;100016.53;4484604;32;33985;-66
2023/09/15 00:02:55;;;;;;;5.60;3.62;;;;;;;27.21;44.79;100007.72;4484719;32;34484;-66
2023/09/15 00:05:23;;;;;;;7.85;3.60;;;;;;;27.22;44.78;100005.81;4484758;32;33203;-66
2023/09/15 00:07:51;;;;;;;4.35;2.92;;;;;;;27.21;44.75;100010.47;4484474;32;33858;-66
2023/09/15 00:10:19;;;;;;;6.87;3.80;;;;;;;27.21;44.69;100015.94;4484398;32;33699;-67
2023/09/15 00:12:46;;;;;;;7.35;4.65;;;;;;;27.21;44.67;100010.47;4484374;32;34823;-66
2023/09/15 00:15:15;;;;;;;5.78;3.70;;;;;;;27.21;44.69;100009.63;4484294;32;33532;-66
2023/09/15 00:17:43;;;;;;;5.43;3.10;;;;;;;27.20;44.66;100014.28;4470367;32;34350;-67
2023/09/15 00:20:16;;;;;;;5.65;3.35;;;;;;;27.20;44.63;100017.03;4470731;32;34701;-68
2023/09/15 00:22:51;;;;;;;6.70;3.53;;;;;;;27.20;44.58;100010.72;4481510;31;33847;-66
2023/09/15 00:25:19;;;;;;;6.20;3.78;;;;;;;27.19;44.55;100015.38;4479202;32;33291;-66
2023/09/15 00:27:48;;;;;;;7.10;3.78;;;;;;;27.18;44.55;100019.16;4470231;32;34495;-66
2023/09/15 00:30:16;;;;;;;6.32;4.25;;;;;;;27.20;44.51;100021.66;4468643;32;34028;-66
2023/09/15 00:32:48;;;;;;;6.35;3.70;;;;;;;27.18;44.54;100021.91;4467446;32;34470;-66
2023/09/15 00:35:18;;;;;;;6.85;3.80;;;;;;;27.18;44.51;100027.37;4467433;32;34253;-66
2023/09/15 00:37:46;;;;;;;9.50;3.40;;;;;;;27.18;44.46;100026.53;4454722;32;33723;-66
2023/09/15 00:40:14;;;;;;;6.37;3.70;;;;;;;27.19;44.37;100023.59;4468951;32;34236;-66
2023/09/15 00:42:46;;;;;;;5.80;4.00;;;;;;;27.18;44.33;100037.50;4470242;32;33972;-66
2023/09/15 00:45:15;;;;;;;8.35;4.78;;;;;;;27.18;44.32;100030.13;4482829;32;34163;-66
2023/09/15 00:47:43;;;;;;;6.50;3.67;;;;;;;27.20;44.27;100038.94;4482833;32;33871;-66
2023/09/15 00:50:13;;;;;;;6.50;4.10;;;;;;;27.17;44.23;100031.19;4470110;32;33501;-66
2023/09/15 00:52:43;;;;;;;6.72;4.40;;;;;;;27.17;44.21;100033.09;4483084;32;33641;-66
2023/09/15 00:55:11;;;;;;;6.37;4.07;;;;;;;27.17;44.23;100025.72;4482944;32;33301;-66
2023/09/15 00:57:39;;;;;;;7.32;4.47;;;;;;;27.17;44.22;100031.19;4470104;32;33865;-66
2023/09/15 01:00:11;;;;;;;5.57;3.40;;;;;;;27.17;44.20;100033.94;4482892;32;33803;-66
2023/09/15 01:02:40;;;;;;;5.65;3.90;;;;;;;27.16;44.16;100028.72;4482740;32;33933;-66
2023/09/15 01:05:16;;;;;;;5.62;3.80;;;;;;;27.15;44.08;100033.37;4457460;32;33285;-66
2023/09/15 01:07:43;;;;;;;6.25;4.70;;;;;;;27.15;44.09;100032.53;4483993;32;33971;-66
2023/09/15 01:10:12;;;;;;;8.45;4.55;;;;;;;27.15;44.06;100032.53;4482841;32;34349;-66
2023/09/15 01:12:43;;;;;;;7.32;4.18;;;;;;;27.15;43.95;100027.88;4484113;32;33766;-66
2023/09/15 01:15:11;;;;;;;6.65;4.20;;;;;;;27.14;43.94;100031.72;4482523;32;34224;-66
2023/09/15 01:18:14;;;;;;;6.60;3.70;;;;;;;27.15;43.95;100032.53;4475305;32;33920;-66
2023/09/15 01:21:09;;;;;;;5.82;3.58;;;;;;;27.15;43.94;100022.41;4467162;32;33068;-66
2023/09/15 01:23:46;;;;;;;5.57;3.97;;;;;;;27.13;43.84;100027.28;4468259;32;33410;-66
2023/09/15 01:26:23;;;;;;;6.68;4.07;;;;;;;27.12;43.79;100033.84;4454558;32;33066;-66
2023/09/15 01:29:39;;;;;;;6.07;4.53;;;;;;;27.11;43.75;100025.88;4468103;32;32821;-66
2023/09/15 01:32:08;;;;;;;4.80;3.50;;;;;;;27.14;43.56;100030.84;4463304;32;33776;-66
2023/09/15 01:34:36;;;;;;;5.60;3.62;;;;;;;27.10;43.58;100024.22;4465978;32;34736;-66
2023/09/15 01:37:04;;;;;;;5.10;3.40;;;;;;;27.10;43.57;100029.72;4468306;32;33697;-66
2023/09/15 01:39:32;;;;;;;7.82;4.20;;;;;;;27.09;43.54;100028.88;4468091;32;33915;-66
2023/09/15 01:42:00;;;;;;;7.53;4.50;;;;;;;27.10;43.54;100029.72;4468363;32;34073;-66
2023/09/15 01:44:27;;;;;;;6.78;4.12;;;;;;;27.09;43.53;100028.88;4468097;32;33187;-66
2023/09/15 01:46:55;;;;;;;5.82;3.62;;;;;;;27.08;43.52;100043.63;4468031;32;32957;-66
2023/09/15 01:49:23;;;;;;;7.90;4.30;;;;;;;27.10;43.46;100040.66;4468248;32;33452;-66
2023/09/15 01:51:51;;;;;;;5.62;3.87;;;;;;;27.08;43.35;100032.66;4468134;32;34274;-66
2023/09/15 01:54:18;;;;;;;9.32;4.28;;;;;;;27.09;43.44;100041.72;4466665;32;33954;-66
2023/09/15 01:56:49;;;;;;;6.05;4.18;;;;;;;27.09;43.44;100042.56;4466827;32;33615;-66
2023/09/15 01:59:16;;;;;;;7.82;4.25;;;;;;;27.08;43.44;100043.63;4454276;32;33116;-67
2023/09/15 02:01:44;;;;;;;7.28;4.28;;;;;;;27.08;43.41;100049.09;4477798;32;34661;-66
2023/09/15 02:04:12;;;;;;;7.30;4.20;;;;;;;27.09;43.34;100052.66;4483515;32;33996;-65
2023/09/15 02:06:40;;;;;;;11.63;3.65;;;;;;;27.07;43.28;100052.06;4483641;32;33042;-66
2023/09/15 02:09:08;;;;;;;6.03;4.10;;;;;;;27.07;43.20;100057.53;4483518;32;34397;-66
2023/09/15 02:11:35;;;;;;;4.75;3.12;;;;;;;27.07;43.14;100047.41;4482214;32;33711;-66
2023/09/15 02:14:03;;;;;;;4.78;3.28;;;;;;;27.08;43.07;100059.19;4483190;32;34591;-66
2023/09/15 02:16:31;;;;;;;6.25;4.28;;;;;;;27.06;43.03;100053.16;4483433;32;33199;-66
2023/09/15 02:19:00;;;;;;;6.15;4.20;;;;;;;27.06;42.97;100053.16;4483220;32;34008;-66
2023/09/15 02:21:27;;;;;;;9.57;4.57;;;;;;;27.05;42.95;100049.59;4483141;32;33749;-66
2023/09/15 02:23:55;;;;;;;6.57;4.43;;;;;;;27.06;42.96;100050.41;4483256;32;33860;-66
2023/09/15 02:26:23;;;;;;;7.05;4.05;;;;;;;27.05;42.99;100048.75;4483642;32;33407;-66
2023/09/15 02:28:50;;;;;;;6.65;4.03;;;;;;;27.06;42.87;100050.41;4483165;32;34697;-66
2023/09/15 02:31:18;;;;;;;5.18;3.60;;;;;;;27.04;42.80;100047.06;4481859;32;34713;-66
2023/09/15 02:33:46;;;;;;;4.82;3.30;;;;;;;27.03;42.80;100048.16;4483189;32;33567;-66
2023/09/15 02:36:13;;;;;;;6.03;3.62;;;;;;;27.01;42.76;100042.94;4483013;32;33284;-66
2023/09/15 02:38:41;;;;;;;5.62;3.90;;;;;;;27.02;42.76;100047.31;4483066;32;33931;-66
2023/09/15 02:41:09;;;;;;;6.20;3.87;;;;;;;27.02;42.74;100038.28;4482955;32;33472;-66
2023/09/15 02:43:36;;;;;;;6.00;3.85;;;;;;;27.02;42.69;100041.03;4482803;32;34120;-66
2023/09/15 02:46:04;;;;;;;7.97;4.20;;;;;;;27.02;42.64;100041.03;4484593;32;34381;-66
2023/09/15 02:48:32;;;;;;;7.10;3.95;;;;;;;27.01;42.56;100042.09;4484020;32;33942;-66
2023/09/15 02:51:01;;;;;;;4.80;3.50;;;;;;;27.00;42.51;100037.69;4484757;32;34849;-66
2023/09/15 02:53:29;;;;;;;4.62;3.78;;;;;;;27.00;42.48;100041.28;4485331;32;33490;-66
2023/09/15 02:56:01;;;;;;;7.65;4.40;;;;;;;27.00;42.49;100034.94;4483786;32;33456;-66
2023/09/15 02:58:30;;;;;;;6.43;4.00;;;;;;;27.00;42.39;100037.69;4483800;32;33934;-66
2023/09/15 03:00:57;;;;;;;6.07;4.50;;;;;;;26.99;42.38;100041.50;4484120;32;33543;-66
2023/09/15 03:03:25;;;;;;;6.57;4.43;;;;;;;26.98;42.41;100042.59;4485157;32;33848;-66
2023/09/15 03:06:03;;;;;;;5.95;4.00;;;;;;;26.98;42.32;100050.78;4485248;32;33154;-66
2023/09/15 03:08:33;;;;;;;10.07;4.47;;;;;;;26.99;42.30;100046.97;4483954;32;33839;-66
2023/09/15 03:11:01;;;;;;;8.23;4.60;;;;;;;26.96;42.31;100049.12;4484623;32;33934;-66
2023/09/15 03:13:29;;;;;;;5.93;4.28;;;;;;;26.96;42.35;100042.84;4483888;32;34485;-66
2023/09/15 03:16:07;;;;;;;5.40;3.60;;;;;;;26.96;42.39;100040.91;4458116;32;34174;-66
2023/09/15 03:18:35;;;;;;;5.85;4.18;;;;;;;26.96;42.30;100037.34;4469989;32;33678;-66
2023/09/15 03:21:03;;;;;;;5.87;4.15;;;;;;;26.95;42.23;100039.25;4469174;32;33794;-66
2023/09/15 03:23:31;;;;;;;5.97;3.92;;;;;;;26.93;42.23;100038.66;4467770;32;34268;-66
2023/09/15 03:26:02;;;;;;;7.43;4.00;;;;;;;26.94;42.22;100040.31;4469133;32;34236;-66
2023/09/15 03:28:31;;;;;;;4.70;3.20;;;;;;;26.93;42.25;100040.56;4467994;32;34141;-66
2023/09/15 03:31:00;;;;;;;5.60;3.75;;;;;;;26.94;42.23;100039.50;4468813;32;34001;-66
2023/09/15 03:33:30;;;;;;;6.93;4.50;;;;;;;26.93;42.21;100037.84;4469304;32;33695;-66
2023/09/15 03:35:58;;;;;;;6.00;4.37;;;;;;;26.92;42.15;100042.47;4469197;32;34445;-66
2023/09/15 03:38:25;;;;;;;9.00;4.40;;;;;;;26.93;42.15;100041.41;4468924;32;33975;-66
2023/09/15 03:40:53;;;;;;;6.50;4.28;;;;;;;26.93;42.18;100046.06;4469304;32;33693;-66
2023/09/15 03:43:21;;;;;;;5.87;4.10;;;;;;;26.93;42.09;100048.78;4469066;32;34661;-66
2023/09/15 03:45:48;;;;;;;5.70;4.00;;;;;;;26.91;42.10;100050.94;4468837;32;32978;-66
2023/09/15 03:48:16;;;;;;;5.72;3.78;;;;;;;26.92;42.09;100049.88;4468723;32;34122;-66
2023/09/15 03:50:44;;;;;;;5.10;3.60;;;;;;;26.91;42.10;100051.78;4468943;32;34123;-65
2023/09/15 03:53:11;;;;;;;5.70;4.20;;;;;;;26.90;42.07;100052.81;4468891;32;34564;-66
2023/09/15 03:55:39;;;;;;;5.10;3.75;;;;;;;26.90;42.02;100047.34;4468895;32;33151;-66
2023/09/15 03:58:07;;;;;;;6.80;4.90;;;;;;;26.90;42.02;100047.34;4468262;32;34893;-66
2023/09/15 04:00:35;;;;;;;6.05;4.12;;;;;;;26.90;42.03;100050.09;4469003;32;34884;-66
2023/09/15 04:03:04;;;;;;;6.68;4.80;;;;;;;26.89;41.98;100051.19;4467944;32;34553;-66
2023/09/15 04:05:32;;;;;;;6.05;4.10;;;;;;;26.89;41.94;100051.19;4469158;32;34197;-66
2023/09/15 04:08:01;;;;;;;5.60;4.10;;;;;;;26.90;41.91;100065.69;4469228;32;33430;-66
2023/09/15 04:10:29;;;;;;;6.28;4.75;;;;;;;26.89;41.89;100056.66;4467591;32;33587;-66
2023/09/15 04:12:57;;;;;;;7.87;3.95;;;;;;;26.88;41.90;100057.72;4468934;32;34577;-66
2023/09/15 04:15:24;;;;;;;5.40;4.20;;;;;;;26.87;41.92;100064.28;4467488;32;33482;-66
2023/09/15 04:17:54;;;;;;;5.93;4.37;;;;;;;26.87;41.88;100067.03;4460724;32;34712;-66
2023/09/15 04:20:22;;;;;;;5.97;4.60;;;;;;;26.86;41.92;100062.62;4468681;32;34007;-67
2023/09/15 04:23:11;;;;;;;6.10;4.15;;;;;;;26.88;41.86;100076.06;4468690;32;34136;-66
2023/09/15 04:25:39;;;;;;;6.35;4.37;;;;;;;26.87;41.74;100074.41;4468565;32;33567;-66
2023/09/15 04:28:08;;;;;;;7.00;4.10;;;;;;;26.87;41.69;100074.41;4469030;32;34728;-66
2023/09/15 04:30:36;;;;;;;6.93;4.57;;;;;;;26.87;41.66;100074.41;4468907;32;33779;-66
2023/09/15 04:33:04;;;;;;;6.12;4.10;;;;;;;26.87;41.67;100077.16;4478081;32;33415;-66
2023/09/15 04:35:32;;;;;;;6.30;4.12;;;;;;;26.85;41.71;100074.63;4484328;32;33348;-66
2023/09/15 04:38:00;;;;;;;8.02;4.97;;;;;;;26.85;41.66;100073.81;4484467;32;33644;-66
2023/09/15 04:40:28;;;;;;;7.28;4.60;;;;;;;26.84;41.62;100075.72;4484188;32;34050;-66
2023/09/15 04:42:55;;;;;;;7.53;4.43;;;;;;;26.84;41.59;100074.87;4484059;32;33847;-66
2023/09/15 04:45:25;;;;;;;6.80;4.90;;;;;;;26.82;41.58;100080.63;4484470;32;33559;-66
2023/09/15 04:47:53;;;;;;;7.80;5.15;;;;;;;26.83;41.54;100079.53;4484070;32;33772;-66
2023/09/15 04:50:21;;;;;;;7.75;4.87;;;;;;;26.81;41.65;100080.84;4484383;32;34010;-66
2023/09/15 04:52:49;;;;;;;8.85;4.15;;;;;;;26.81;41.67;100075.38;4484445;32;34168;-66
2023/09/15 04:55:16;;;;;;;7.82;4.57;;;;;;;26.81;41.67;100078.94;4477513;32;34772;-66
2023/09/15 04:57:45;;;;;;;6.45;4.53;;;;;;;26.81;41.63;100076.19;4481849;32;33885;-66
2023/09/15 05:00:21;;;;;;;7.37;4.75;;;;;;;26.81;41.65;100084.41;4484395;32;33789;-66
2023/09/15 05:02:51;;;;;;;6.82;4.60;;;;;;;26.81;41.57;100087.13;4484324;32;34415;-66
2023/09/15 05:05:19;;;;;;;9.52;4.68;;;;;;;26.82;41.52;100083.34;4467839;32;34156;-66
2023/09/15 05:07:46;;;;;;;6.12;4.15;;;;;;;26.81;41.49;100081.66;4467663;32;33520;-66
2023/09/15 05:10:14;;;;;;;6.62;4.82;;;;;;;26.80;41.48;100077.28;4467722;32;33883;-66
2023/09/15 05:12:42;;;;;;;6.12;4.70;;;;;;;26.80;41.49;100071.78;4468104;32;34730;-66
2023/09/15 05:15:10;;;;;;;7.87;5.05;;;;;;;26.80;41.51;100077.28;4468120;32;34346;-66
2023/09/15 05:17:38;;;;;;;6.70;4.37;;;;;;;26.80;41.54;100079.19;4463205;32;34809;-66
2023/09/15 05:20:06;;;;;;;10.32;5.00;;;;;;;26.80;41.58;100079.19;4454423;32;33835;-66
2023/09/15 05:22:34;;;;;;;8.10;5.00;;;;;;;26.79;41.68;100080.25;4467087;32;33794;-66
2023/09/15 05:25:04;;;;;;;9.90;4.72;;;;;;;26.80;41.71;100092.88;4468462;32;33018;-66
2023/09/15 05:27:33;;;;;;;8.50;4.65;;;;;;;26.79;41.78;100083.00;4468532;32;34476;-66
2023/09/15 05:30:01;;;;;;;9.15;4.40;;;;;;;26.79;41.82;100086.56;4454152;32;34560;-66
2023/09/15 05:32:30;;;;;;;11.10;5.15;;;;;;;26.79;41.84;100083.00;4468408;32;34068;-66
2023/09/15 05:34:58;;;;;;;7.72;4.25;;;;;;;26.78;41.88;100084.91;4468172;32;33453;-66
2023/09/15 05:37:26;;;;;;;8.50;4.15;;;;;;;26.78;41.92;100084.09;4467797;32;34023;-66
2023/09/15 05:39:53;;;;;;;8.65;4.70;;;;;;;26.78;41.97;100086.81;4466545;32;33968;-66
2023/09/15 05:42:21;;;;;;;9.07;4.32;;;;;;;26.79;42.00;100093.94;4467735;32;33771;-66
2023/09/15 05:44:49;;;;;;;7.50;4.55;;;;;;;26.78;42.04;100089.56;4467349;32;33115;-66
2023/09/15 05:47:16;;;;;;;8.50;4.75;;;;;;;26.76;42.08;100089.78;4467551;32;33774;-65
2023/09/15 05:49:44;;;;;;;9.07;4.95;;;;;;;26.77;42.09;100088.72;4466466;32;33903;-65
2023/09/15 05:52:12;;;;;;;9.05;5.20;;;;;;;26.75;42.11;100088.13;4467524;32;33580;-65
2023/09/15 05:54:39;;;;;;;9.43;5.32;;;;;;;26.76;42.14;100091.69;4467910;32;33409;-65
2023/09/15 05:57:07;;;;;;;10.25;4.85;;;;;;;26.75;42.17;100096.34;4468110;32;33466;-65
2023/09/15 05:59:34;;;;;;;8.68;5.43;;;;;;;26.76;42.17;100092.50;4468047;32;33750;-65
2023/09/15 06:02:02;;;;;;;9.23;5.72;;;;;;;26.76;42.19;100091.69;4468138;32;33980;-65
2023/09/15 06:04:30;;;;;;;12.90;5.12;;;;;;;26.74;42.22;100091.94;4466718;32;33375;-65
2023/09/15 06:06:57;;;;;;;8.50;5.47;;;;;;;26.75;42.25;100096.34;4467821;32;33549;-65
2023/09/15 06:09:25;;;;;;;9.88;5.07;;;;;;;26.75;42.26;100095.50;4467825;32;34694;-65
2023/09/15 06:11:53;;;;;;;8.82;4.30;;;;;;;26.73;42.29;100095.75;4466280;32;34583;-66
2023/09/15 06:14:20;;;;;;;8.32;4.50;;;;;;;26.74;42.29;100100.16;4467309;32;33820;-66
2023/09/15 06:16:48;;;;;;;11.63;4.62;;;;;;;26.73;42.32;100103.97;4468750;32;33825;-66
2023/09/15 06:19:16;;;;;;;8.00;4.57;;;;;;;26.73;42.34;100106.72;4483275;32;33599;-66
2023/09/15 06:21:43;;;;;;;8.75;4.60;;;;;;;26.71;42.38;100098.72;4485249;32;33723;-66
2023/09/15 06:24:11;;;;;;;8.40;4.35;;;;;;;26.73;42.39;100112.19;4485232;32;34062;-66
2023/09/15 06:26:39;;;;;;;6.82;4.25;;;;;;;26.71;42.41;100108.84;4485311;32;33885;-66
2023/09/15 06:29:06;;;;;;;6.30;3.85;;;;;;;26.71;42.40;100112.41;4485427;32;34931;-66
2023/09/15 06:31:34;;;;;;;9.40;4.47;;;;;;;26.69;42.39;100111.81;4485219;32;33820;-66
2023/09/15 06:34:02;;;;;;;7.10;4.50;;;;;;;26.69;42.41;100117.28;4485051;32;33807;-66
2023/09/15 06:36:29;;;;;;;7.12;4.40;;;;;;;26.69;42.42;100114.56;4485212;32;33922;-66
2023/09/15 06:38:57;;;;;;;6.18;4.05;;;;;;;26.69;42.43;100111.00;4449744;32;34407;-65
2023/09/15 06:41:25;;;;;;;9.32;4.28;;;;;;;26.69;42.45;100111.00;4468115;32;33919;-66
2023/09/15 06:43:52;;;;;;;10.25;4.32;;;;;;;26.69;42.50;100116.47;4469505;32;33552;-66
2023/09/15 06:46:21;;;;;;;7.93;3.90;;;;;;;26.70;42.52;100118.94;4469792;32;33568;-66
2023/09/15 06:48:50;;;;;;;8.68;4.18;;;;;;;26.69;42.54;100122.78;4469122;32;33851;-66
2023/09/15 06:51:17;;;;;;;8.10;4.60;;;;;;;26.69;42.57;100111.81;4469330;32;34530;-67
2023/09/15 06:53:45;;;;;;;6.45;4.47;;;;;;;26.69;42.64;100116.47;4469383;32;33501;-66
2023/09/15 06:56:13;;;;;;;6.55;4.03;;;;;;;26.68;42.68;100115.63;4469230;32;35238;-66
2023/09/15 06:58:40;;;;;;;8.27;5.05;;;;;;;26.68;42.66;100115.63;4469371;32;34778;-66
2023/09/15 07:01:08;;;;;;;6.62;3.80;;;;;;;26.68;42.67;100112.91;4469348;32;34603;-66
2023/09/15 07:03:36;;;;;;;7.57;4.40;;;;;;;26.69;42.71;100116.47;4469267;32;33504;-66
2023/09/15 07:06:03;;;;;;;5.93;4.10;;;;;;;26.69;42.74;100119.19;4469338;32;34462;-66
2023/09/15 07:08:31;;;;;;;6.85;4.62;;;;;;;26.68;42.74;100117.53;4469257;32;34249;-66
2023/09/15 07:10:59;;;;;;;8.23;4.60;;;;;;;26.68;42.79;100121.13;4469111;32;33534;-66
2023/09/15 07:13:26;;;;;;;5.55;4.00;;;;;;;26.68;42.83;100126.59;4469479;32;33009;-67
2023/09/15 07:15:54;;;;;;;6.72;4.20;;;;;;;26.69;42.84;100121.94;4469320;32;34675;-66
2023/09/15 07:18:21;;;;;;;6.85;4.55;;;;;;;26.69;42.84;100119.19;4481028;32;34772;-67
2023/09/15 07:20:49;;;;;;;9.38;4.22;;;;;;;26.71;42.84;100119.78;4483653;32;33759;-68
2023/09/15 07:23:16;;;;;;;6.05;3.92;;;;;;;26.70;42.84;100126.34;4470706;32;34161;-66
2023/09/15 07:25:48;;;;;;;6.93;3.95;;;;;;;26.71;42.86;100117.88;4484691;32;33803;-66
2023/09/15 07:28:16;;;;;;;9.13;4.53;;;;;;;26.71;42.88;100114.31;4483576;32;35603;-66
2023/09/15 07:30:43;;;;;;;6.25;4.28;;;;;;;26.72;42.86;100118.72;4484629;32;34331;-66
2023/09/15 07:33:11;;;;;;;6.18;4.30;;;;;;;26.73;42.87;100119.56;4482963;32;33388;-66
2023/09/15 07:35:39;;;;;;;7.68;4.85;;;;;;;26.72;42.89;100118.72;4484853;32;34715;-66
2023/09/15 07:38:06;;;;;;;5.87;3.80;;;;;;;26.73;42.91;100120.41;4484122;32;34044;-67
2023/09/15 07:40:34;;;;;;;8.15;4.12;;;;;;;26.75;42.93;100120.97;4484481;32;34746;-66
2023/09/15 07:43:02;;;;;;;6.55;4.57;;;;;;;26.75;42.95;100117.41;4484659;32;33456;-67
2023/09/15 07:45:29;;;;;;;5.47;3.95;;;;;;;26.76;42.98;100122.63;4484041;32;33818;-67
2023/09/15 07:47:57;;;;;;;5.60;3.55;;;;;;;26.76;42.97;100121.78;4484289;32;34981;-66
2023/09/15 07:50:25;;;;;;;5.45;3.40;;;;;;;26.77;42.92;100124.31;4484680;32;33988;-67
2023/09/15 07:52:53;;;;;;;5.95;3.70;;;;;;;26.77;42.91;100127.06;4484788;32;33014;-67
2023/09/15 07:55:20;;;;;;;6.03;3.85;;;;;;;26.78;42.92;100123.22;4484479;32;33660;-67
2023/09/15 07:57:48;;;;;;;5.35;3.17;;;;;;;26.78;42.91;100125.16;4484592;32;34831;-66
2023/09/15 08:00:16;;;;;;;5.95;3.30;;;;;;;26.78;42.87;100117.75;4484957;32;33907;-67
2023/09/15 08:02:45;;;;;;;6.22;3.62;;;;;;;26.78;42.83;100125.97;4483983;32;33829;-66
2023/09/15 08:05:15;;;;;;;4.30;2.80;;;;;;;26.79;42.79;100119.41;4484503;32;34652;-66
2023/09/15 08:07:46;;;;;;;5.23;3.63;;;;;;;26.79;42.79;100118.59;4483940;32;33589;-66
2023/09/15 08:10:14;;;;;;;4.47;2.72;;;;;;;26.80;42.76;100115.59;4484625;32;33801;-67
2023/09/15 08:12:42;;;;;;;5.12;3.42;;;;;;;26.80;42.73;100117.50;4484398;32;33426;-66
2023/09/15 08:15:10;;;;;;;5.35;3.03;;;;;;;26.81;42.70;100124.66;4484288;32;34756;-66
2023/09/15 08:17:38;;;;;;;4.40;2.85;;;;;;;26.80;42.67;100118.34;4475844;32;34105;-66
2023/09/15 08:20:06;;;;;;;4.40;2.87;;;;;;;26.80;42.68;100112.88;4474715;32;34586;-67
2023/09/15 08:22:34;;;;;;;6.10;2.50;;;;;;;26.81;42.67;100116.44;4484241;32;33299;-66
2023/09/15 08:25:03;;;;;;;6.50;3.12;;;;;;;26.82;42.68;100118.94;4484317;32;33590;-66
2023/09/15 08:27:31;;;;;;;3.45;2.58;;;;;;;26.82;42.67;100112.63;4483275;32;34012;-67
2023/09/15 08:29:59;;;;;;;6.28;2.85;;;;;;;26.82;42.63;100110.72;4483675;32;34055;-66
2023/09/15 08:32:27;;;;;;;5.78;2.80;;;;;;;26.81;42.59;100106.31;4476980;31;33522;-66
2023/09/15 08:34:56;;;;;;;4.75;2.50;;;;;;;26.84;42.55;100113.22;4480325;32;33843;-67
2023/09/15 08:37:23;;;;;;;4.85;3.00;;;;;;;26.83;42.61;100103.34;4477410;32;34737;-68
2023/09/15 08:39:51;;;;;;;4.50;2.70;;;;;;;26.84;42.53;100107.75;4484355;32;33865;-67
2023/09/15 08:42:28;;;;;;;4.20;2.42;;;;;;;26.84;42.48;100103.09;4484115;32;33625;-67
2023/09/15 08:44:57;;;;;;;5.90;2.87;;;;;;;26.86;42.39;100097.38;4483126;32;33671;-67
2023/09/15 08:47:27;;;;;;;4.22;2.58;;;;;;;26.86;42.30;100098.22;4480815;32;33387;-67
2023/09/15 08:49:54;;;;;;;;;;;;;;;26.88;42.29;100103.44;4464753;32;34289;-66
2023/09/15 08:52:22;;;;;;;3.75;2.15;;;;;;;26.98;41.96;100098.19;4452668;32;32115;-67
2023/09/15 08:54:51;;;;;;;5.80;2.50;;;;;;;26.90;41.93;100093.06;4468047;32;33681;-67
2023/09/15 08:57:19;;;;;;;4.95;2.67;;;;;;;26.89;41.83;100099.62;4481532;32;34916;-67
2023/09/15 08:59:46;;;;;;;6.72;2.50;;;;;;;26.89;41.63;100103.19;4483567;32;33028;-67
2023/09/15 09:02:14;;;;;;;4.95;2.30;;;;;;;26.88;41.73;100112.50;4482799;32;33390;-68
2023/09/15 09:04:42;;;;;;;5.75;2.87;;;;;;;26.90;41.49;100107.59;4483886;32;33807;-67
2023/09/15 09:07:10;;;;;;;4.20;2.37;;;;;;;26.91;41.62;100114.75;4482925;32;33608;-67
2023/09/15 09:09:38;;;;;;;4.80;2.50;;;;;;;26.91;41.82;100113.94;4459545;32;33763;-67
2023/09/15 09:12:05;;;;;;;5.53;2.85;;;;;;;26.91;41.47;100103.81;4467198;32;33489;-67
2023/09/15 09:14:34;;;;;;;4.55;2.60;;;;;;;26.92;41.12;100110.09;4467080;32;33528;-67
2023/09/15 09:17:03;;;;;;;5.18;2.80;;;;;;;26.91;41.18;100103.81;4470651;32;34748;-67
2023/09/15 09:19:37;;;;;;;4.00;2.78;;;;;;;26.93;41.32;100104.38;4473711;32;34823;-67
2023/09/15 09:22:08;;;;;;;4.55;2.72;;;;;;;26.93;41.10;100112.59;4483920;32;33540;-66
2023/09/15 09:24:36;;;;;;;4.78;3.00;;;;;;;26.93;41.15;100111.75;4483865;32;33891;-66
2023/09/15 09:27:10;;;;;;;7.57;3.20;;;;;;;26.93;41.21;100106.28;4482640;32;34583;-66
2023/09/15 09:29:38;;;;;;;5.75;2.90;;;;;;;26.94;40.96;100108.78;4482725;32;33925;-66
2023/09/15 09:32:05;;;;;;;6.10;3.22;;;;;;;26.93;40.95;100106.28;4482646;32;34603;-66
2023/09/15 09:34:33;;;;;;;4.85;2.90;;;;;;;26.93;40.80;100107.12;4482631;32;33479;-66
2023/09/15 09:37:14;;;;;;;4.55;3.08;;;;;;;26.94;40.58;100114.25;4483704;32;34069;-66
2023/09/15 09:39:42;;;;;;;4.60;3.08;;;;;;;26.94;40.60;100100.56;4467891;32;34059;-66
2023/09/15 09:42:10;;;;;;;5.90;2.80;;;;;;;26.94;40.89;100102.47;4466953;32;33826;-66
2023/09/15 09:44:38;;;;;;;5.20;3.00;;;;;;;26.93;41.05;100107.12;4466788;32;33906;-66
2023/09/15 09:47:07;;;;;;;4.57;2.80;;;;;;;26.94;40.91;100102.47;4466774;32;34761;-67
2023/09/15 09:49:36;;;;;;;4.95;2.50;;;;;;;26.94;40.54;100103.31;4466874;32;33568;-66
2023/09/15 09:52:03;;;;;;;5.18;2.90;;;;;;;26.96;40.02;100100.34;4466930;32;33363;-66
2023/09/15 09:54:34;;;;;;;5.10;2.72;;;;;;;26.96;40.01;100105.81;4453036;32;34640;-66
2023/09/15 09:57:02;;;;;;;6.80;2.50;;;;;;;26.94;39.87;100103.31;4464574;32;32848;-67
2023/09/15 09:59:30;;;;;;;5.47;2.90;;;;;;;26.95;39.92;100109.59;4441089;32;32582;-67
2023/09/15 10:01:58;;;;;;;4.72;2.80;;;;;;;26.96;39.88;100111.28;4477073;32;33226;-67
2023/09/15 10:04:25;;;;;;;4.70;2.72;;;;;;;26.96;40.12;100111.28;4483581;32;33978;-67
2023/09/15 10:06:53;;;;;;;4.93;2.42;;;;;;;26.95;40.46;100115.94;4482105;32;34585;-66
2023/09/15 10:09:20;;;;;;;5.87;2.65;;;;;;;26.95;40.21;100109.59;4482146;32;33843;-67
2023/09/15 10:11:48;;;;;;;5.62;2.70;;;;;;;26.95;39.96;100106.88;4469457;32;33669;-67
2023/09/15 10:14:20;;;;;;;5.10;2.47;;;;;;;26.95;39.96;100107.72;4483282;32;33631;-67
2023/09/15 10:16:47;;;;;;;4.22;2.70;;;;;;;26.95;39.75;100110.47;4470551;32;34000;-67
2023/09/15 10:19:15;;;;;;;4.47;2.40;;;;;;;26.96;39.34;100111.28;4453453;32;33586;-66
2023/09/15 10:21:42;;;;;;;4.47;2.37;;;;;;;26.96;39.43;100106.66;4466505;32;33821;-66
2023/09/15 10:24:10;;;;;;;4.32;2.87;;;;;;;26.96;39.17;100101.16;4466386;32;34786;-66
2023/09/15 10:26:41;;;;;;;4.97;2.70;;;;;;;26.97;39.26;100099.25;4466251;32;35009;-66
2023/09/15 10:29:13;;;;;;;3.70;2.28;;;;;;;26.97;38.97;100099.25;4467639;32;34463;-66
2023/09/15 10:31:42;;;;;;;4.35;2.67;;;;;;;26.98;39.18;100102.81;4466437;32;33380;-66
2023/09/15 10:34:09;;;;;;;4.60;2.60;;;;;;;26.97;39.21;100096.53;4467196;32;33899;-66
2023/09/15 10:36:40;;;;;;;4.35;2.67;;;;;;;26.99;39.22;100096.25;4467795;32;33408;-66
2023/09/15 10:39:13;;;;;;;4.35;2.53;;;;;;;26.98;39.31;100089.97;4466260;32;33898;-66
2023/09/15 10:41:41;;;;;;;5.25;3.15;;;;;;;27.00;39.13;100089.72;4467344;32;33175;-66
2023/09/15 10:44:08;;;;;;;5.05;2.58;;;;;;;27.00;39.06;100089.72;4453402;32;34637;-67
2023/09/15 10:46:40;;;;;;;4.70;2.60;;;;;;;26.99;39.07;100090.78;4453199;32;33175;-66
2023/09/15 10:49:15;;;;;;;4.95;2.75;;;;;;;27.00;38.87;100089.72;4465986;32;33853;-67
2023/09/15 10:51:54;;;;;;;3.95;2.53;;;;;;;26.99;38.88;100088.88;4475958;32;33311;-66
2023/09/15 10:54:24;;;;;;;4.72;2.58;;;;;;;27.01;38.89;100091.41;4481896;32;33632;-66
2023/09/15 10:56:52;;;;;;;6.00;2.80;;;;;;;26.99;38.98;100088.06;4481553;32;34638;-67
2023/09/15 10:59:19;;;;;;;4.37;2.58;;;;;;;27.00;39.03;100092.44;4481614;32;34137;-67
2023/09/15 11:01:47;;;;;;;5.10;3.00;;;;;;;26.99;39.14;100090.78;4470756;32;33610;-66
2023/09/15 11:04:21;;;;;;;5.97;2.92;;;;;;;26.99;39.07;100094.34;4470186;31;34408;-67
2023/09/15 11:06:50;;;;;;;5.15;2.75;;;;;;;26.99;39.00;100086.12;4482210;32;33651;-67
2023/09/15 11:09:18;;;;;;;4.78;2.65;;;;;;;27.01;38.98;100089.47;4482874;32;33926;-67
2023/09/15 11:11:49;;;;;;;4.87;2.58;;;;;;;27.02;38.98;100079.34;4478331;32;33046;-66
2023/09/15 11:14:26;;;;;;;5.57;2.60;;;;;;;27.02;39.08;100084.84;4483827;32;33756;-66
2023/09/15 11:17:12;;;;;;;3.95;2.65;;;;;;;27.02;39.17;100079.34;4474762;32;33505;-66
2023/09/15 11:19:40;;;;;;;6.10;2.65;;;;;;;27.05;39.20;100089.84;4467966;32;34083;-66
2023/09/15 11:22:07;;;;;;;5.72;2.53;;;;;;;27.03;39.45;100078.28;4469506;32;34209;-66
2023/09/15 11:24:35;;;;;;;6.35;2.40;;;;;;;27.06;39.55;100080.53;4476241;32;33855;-67
2023/09/15 11:27:03;;;;;;;4.40;2.78;;;;;;;27.06;39.54;100080.53;4474390;32;34316;-67
2023/09/15 11:29:31;;;;;;;4.20;2.60;;;;;;;27.05;39.60;100081.63;4482867;31;33916;-67
2023/09/15 11:31:59;;;;;;;6.25;2.90;;;;;;;27.07;39.64;100080.28;4484746;32;33834;-67